createdAt,value
2023-01-23T00:01:52.664Z,14.50
2023-01-23T00:04:19.436Z,12.60
2023-01-23T00:06:46.852Z,12.37
2023-01-23T00:09:13.487Z,11.50
2023-01-23T00:11:40.025Z,11.67
2023-01-23T00:14:06.536Z,12.50
2023-01-23T00:16:33.105Z,12.73
2023-01-23T00:18:59.672Z,13.37
2023-01-23T00:21:26.792Z,12.83
2023-01-23T00:23:54.055Z,13.73
2023-01-23T00:26:22.758Z,14.50
2023-01-23T00:28:49.570Z,15.00
2023-01-23T00:31:16.256Z,15.23
2023-01-23T00:33:43.105Z,15.07
2023-01-23T00:36:09.891Z,15.77
2023-01-23T00:38:36.627Z,14.83
2023-01-23T00:41:03.368Z,14.33
2023-01-23T00:43:30.027Z,14.23
2023-01-23T00:45:56.583Z,14.63
2023-01-23T00:48:23.092Z,14.40
2023-01-23T00:50:49.852Z,13.10
2023-01-23T00:53:16.468Z,12.67
2023-01-23T00:55:43.098Z,13.03
2023-01-23T00:58:09.692Z,14.73
2023-01-23T01:00:36.578Z,13.80
2023-01-23T01:03:03.128Z,13.50
2023-01-23T01:05:29.708Z,14.03
2023-01-23T01:07:56.187Z,12.63
2023-01-23T01:10:22.683Z,11.13
2023-01-23T01:12:49.477Z,12.97
2023-01-23T01:15:16.016Z,13.00
2023-01-23T01:17:42.519Z,14.67
2023-01-23T01:20:09.219Z,13.70
2023-01-23T01:22:35.747Z,13.83
2023-01-23T01:25:02.242Z,13.43
2023-01-23T01:27:28.790Z,12.83
2023-01-23T01:29:55.357Z,13.17
2023-01-23T01:32:21.894Z,12.97
2023-01-23T01:34:48.698Z,13.27
2023-01-23T01:37:15.192Z,13.50
2023-01-23T01:39:41.679Z,13.20
2023-01-23T01:42:08.242Z,13.63
2023-01-23T01:44:51.948Z,12.40
2023-01-23T01:47:18.429Z,12.20
2023-01-23T01:49:44.914Z,13.33
2023-01-23T01:52:11.529Z,12.17
2023-01-23T01:54:45.978Z,12.27
2023-01-23T01:57:21.890Z,12.17
2023-01-23T01:59:53.978Z,10.70
2023-01-23T02:02:30.657Z,11.97
2023-01-23T02:04:58.700Z,12.37
2023-01-23T02:07:26.558Z,12.10
2023-01-23T02:09:53.091Z,12.13
2023-01-23T02:12:19.558Z,12.00
2023-01-23T02:14:46.070Z,11.03
2023-01-23T02:17:12.764Z,10.87
2023-01-23T02:19:59.314Z,11.23
2023-01-23T02:22:45.668Z,12.03
2023-01-23T02:25:12.260Z,11.80
2023-01-23T02:27:38.738Z,11.93
2023-01-23T02:30:07.922Z,11.43
2023-01-23T02:32:35.957Z,13.30
2023-01-23T02:35:05.737Z,11.50
2023-01-23T02:37:33.973Z,10.57
2023-01-23T02:40:02.811Z,12.43
2023-01-23T02:42:29.875Z,12.13
2023-01-23T02:44:58.115Z,12.93
2023-01-23T02:47:25.488Z,12.53
2023-01-23T02:49:52.328Z,13.47
2023-01-23T02:52:18.859Z,13.77
2023-01-23T02:54:45.398Z,13.07
2023-01-23T02:57:11.990Z,13.50
2023-01-23T02:59:57.349Z,13.87
2023-01-23T03:02:23.960Z,13.87
2023-01-23T03:04:50.543Z,13.60
2023-01-23T03:07:17.053Z,14.40
2023-01-23T03:09:46.315Z,15.80
2023-01-23T03:12:13.170Z,15.90
2023-01-23T03:14:39.686Z,14.57
2023-01-23T03:17:06.153Z,16.80
2023-01-23T03:19:32.667Z,15.57
2023-01-23T03:21:59.133Z,15.07
2023-01-23T03:24:25.629Z,15.50
2023-01-23T03:26:52.197Z,15.20
2023-01-23T03:29:41.571Z,13.57
2023-01-23T03:32:08.268Z,13.73
2023-01-23T03:34:34.981Z,14.20
2023-01-23T03:37:01.594Z,13.97
2023-01-23T03:39:46.731Z,13.90
2023-01-23T03:42:13.267Z,14.63
2023-01-23T03:44:39.838Z,16.13
2023-01-23T03:47:06.546Z,15.17
2023-01-23T03:49:33.128Z,15.77
2023-01-23T03:51:59.719Z,15.87
2023-01-23T03:54:26.356Z,15.50
2023-01-23T03:56:52.871Z,17.60
2023-01-23T03:59:19.368Z,17.93
2023-01-23T04:01:45.870Z,16.60
2023-01-23T04:04:12.344Z,16.13
2023-01-23T04:06:38.881Z,15.67
2023-01-23T04:09:05.519Z,16.13
2023-01-23T04:11:32.020Z,17.50
2023-01-23T04:13:58.732Z,16.13
2023-01-23T04:16:25.560Z,15.90
2023-01-23T04:18:52.179Z,16.43
2023-01-23T04:21:18.721Z,15.97
2023-01-23T04:23:45.345Z,15.23
2023-01-23T04:26:12.123Z,17.57
2023-01-23T04:28:38.633Z,15.57
2023-01-23T04:31:05.347Z,16.17
2023-01-23T04:33:31.929Z,15.77
2023-01-23T04:35:59.670Z,16.13
2023-01-23T04:38:26.782Z,15.07
2023-01-23T04:40:53.268Z,14.87
2023-01-23T04:43:19.793Z,15.30
2023-01-23T04:45:46.413Z,15.47
2023-01-23T04:48:13.228Z,15.50
2023-01-23T04:50:39.796Z,16.33
2023-01-23T04:53:06.276Z,14.47
2023-01-23T04:55:34.041Z,15.47
2023-01-23T04:58:00.659Z,16.23
2023-01-23T05:00:28.943Z,15.67
2023-01-23T05:02:55.560Z,14.40
2023-01-23T05:05:22.256Z,15.47
2023-01-23T05:07:49.100Z,15.97
2023-01-23T05:10:15.676Z,15.63
2023-01-23T05:12:42.174Z,15.30
2023-01-23T05:15:09.059Z,16.93
2023-01-23T05:17:35.590Z,17.17
2023-01-23T05:20:02.243Z,17.07
2023-01-23T05:22:28.779Z,14.87
2023-01-23T05:24:55.278Z,15.30
2023-01-23T05:27:21.753Z,16.90
2023-01-23T05:29:48.339Z,16.57
2023-01-23T05:32:14.818Z,16.83
2023-01-23T05:34:41.392Z,17.07
2023-01-23T05:37:07.858Z,17.33
2023-01-23T05:39:34.363Z,18.27
2023-01-23T05:42:00.958Z,16.20
2023-01-23T05:44:28.458Z,17.53
2023-01-23T05:46:54.948Z,17.03
2023-01-23T05:49:21.445Z,18.17
2023-01-23T05:51:47.921Z,17.67
2023-01-23T05:54:14.473Z,18.37
2023-01-23T05:56:40.989Z,17.10
2023-01-23T05:59:07.531Z,15.33
2023-01-23T06:01:34.038Z,17.93
2023-01-23T06:04:00.569Z,16.43
2023-01-23T06:06:27.107Z,19.47
2023-01-23T06:08:53.662Z,17.30
2023-01-23T06:11:20.136Z,16.97
2023-01-23T06:13:46.635Z,16.90
2023-01-23T06:16:13.172Z,18.10
2023-01-23T06:18:39.686Z,17.50
2023-01-23T06:21:06.322Z,17.03
2023-01-23T06:23:33.084Z,17.87
2023-01-23T06:26:00.616Z,17.53
2023-01-23T06:28:27.154Z,16.80
2023-01-23T06:30:53.860Z,16.80
2023-01-23T06:33:20.460Z,18.37
2023-01-23T06:35:47.040Z,18.03
2023-01-23T06:38:13.551Z,17.17
2023-01-23T06:40:40.048Z,17.83
2023-01-23T06:43:06.645Z,15.87
2023-01-23T06:45:33.141Z,16.53
2023-01-23T06:47:59.630Z,15.10
2023-01-23T06:50:26.145Z,15.67
2023-01-23T06:52:52.630Z,16.27
2023-01-23T06:55:20.332Z,15.37
2023-01-23T06:57:46.810Z,16.37
2023-01-23T07:00:13.637Z,17.33
2023-01-23T07:02:40.246Z,18.40
2023-01-23T07:05:07.027Z,18.20
2023-01-23T07:07:33.763Z,17.60
2023-01-23T07:10:00.441Z,17.00
2023-01-23T07:12:26.981Z,18.40
2023-01-23T07:14:53.625Z,16.37
2023-01-23T07:17:20.131Z,16.80
2023-01-23T07:19:46.737Z,17.47
2023-01-23T07:22:13.256Z,21.90
2023-01-23T07:24:40.071Z,26.27
2023-01-23T07:27:06.886Z,21.50
2023-01-23T07:29:33.355Z,17.47
2023-01-23T07:32:01.166Z,18.20
2023-01-23T07:34:27.962Z,20.07
2023-01-23T07:36:54.532Z,17.83
2023-01-23T07:39:21.126Z,18.60
2023-01-23T07:41:47.678Z,19.43
2023-01-23T07:44:16.768Z,18.83
2023-01-23T07:46:43.729Z,17.27
2023-01-23T07:49:10.238Z,17.70
2023-01-23T07:51:36.735Z,18.27
2023-01-23T07:54:06.072Z,17.47
2023-01-23T07:56:35.846Z,19.67
2023-01-23T07:59:02.375Z,16.40
2023-01-23T08:01:28.863Z,16.73
2023-01-23T08:03:55.569Z,18.03
2023-01-23T08:06:22.177Z,16.87
2023-01-23T08:08:49.144Z,16.47
2023-01-23T08:11:15.884Z,17.37
2023-01-23T08:13:42.534Z,17.53
2023-01-23T08:16:10.045Z,17.60
2023-01-23T08:18:37.396Z,19.43
2023-01-23T08:21:04.025Z,20.27
2023-01-23T08:23:31.267Z,18.73
2023-01-23T08:25:58.542Z,19.47
2023-01-23T08:28:25.449Z,18.60
2023-01-23T08:30:52.054Z,19.63
2023-01-23T08:33:19.117Z,20.23
2023-01-23T08:35:52.421Z,20.53
2023-01-23T08:38:19.417Z,19.60
2023-01-23T08:40:46.421Z,19.93
2023-01-23T08:43:14.214Z,19.73
2023-01-23T08:45:41.223Z,20.83
2023-01-23T08:48:08.193Z,21.47
2023-01-23T08:50:34.900Z,22.47
2023-01-23T08:53:01.369Z,22.13
2023-01-23T08:55:29.060Z,21.90
2023-01-23T08:57:55.667Z,22.43
2023-01-23T09:00:22.658Z,24.03
2023-01-23T09:02:49.433Z,24.73
2023-01-23T09:05:16.107Z,23.67
2023-01-23T09:07:42.653Z,24.40
2023-01-23T09:10:09.268Z,23.33
2023-01-23T09:12:36.041Z,23.53
2023-01-23T09:15:02.598Z,23.57
2023-01-23T09:17:29.185Z,23.67
2023-01-23T09:19:55.723Z,23.67
2023-01-23T09:22:22.324Z,22.33
2023-01-23T09:24:48.856Z,20.63
2023-01-23T09:27:15.534Z,21.93
2023-01-23T09:29:42.099Z,20.90
2023-01-23T09:32:08.668Z,21.93
2023-01-23T09:34:35.196Z,21.30
2023-01-23T09:37:02.042Z,21.47
2023-01-23T09:39:28.521Z,20.87
2023-01-23T09:41:55.535Z,21.97
2023-01-23T09:44:34.149Z,20.23
2023-01-23T09:47:07.731Z,18.77
2023-01-23T09:49:34.234Z,18.67
2023-01-23T09:52:02.056Z,20.40
2023-01-23T09:54:37.392Z,20.23
2023-01-23T09:57:05.835Z,18.00
2023-01-23T09:59:54.020Z,18.90
2023-01-23T10:02:26.908Z,20.10
2023-01-23T10:04:53.834Z,20.10
2023-01-23T10:07:26.559Z,20.73
2023-01-23T10:10:11.937Z,22.13
2023-01-23T10:12:52.939Z,19.30
2023-01-23T10:15:21.413Z,20.40
2023-01-23T10:18:12.396Z,21.30
2023-01-23T10:20:39.719Z,19.30
2023-01-23T10:23:07.053Z,20.23
2023-01-23T10:25:35.823Z,19.33
2023-01-23T10:28:17.140Z,19.70
2023-01-23T10:30:44.369Z,18.50
2023-01-23T10:33:14.854Z,18.83
2023-01-23T10:35:44.329Z,18.17
2023-01-23T10:38:17.173Z,19.33
2023-01-23T10:41:02.469Z,18.53
2023-01-23T10:43:28.980Z,18.83
2023-01-23T10:45:55.569Z,19.93
2023-01-23T10:48:41.818Z,19.40
2023-01-23T10:51:27.188Z,20.57
2023-01-23T10:54:06.285Z,23.33
2023-01-23T10:56:33.529Z,22.47
2023-01-23T10:59:00.686Z,21.53
2023-01-23T11:01:28.085Z,23.50
2023-01-23T11:03:54.593Z,22.43
2023-01-23T11:06:25.946Z,23.10
2023-01-23T11:08:56.714Z,23.07
2023-01-23T11:11:27.965Z,23.73
2023-01-23T11:14:09.951Z,24.77
2023-01-23T11:16:36.515Z,24.20
2023-01-23T11:19:05.200Z,23.10
2023-01-23T11:21:38.805Z,23.03
2023-01-23T11:24:09.630Z,24.00
2023-01-23T11:26:36.830Z,23.20
2023-01-23T11:29:10.029Z,24.03
2023-01-23T11:31:36.694Z,23.23
2023-01-23T11:34:05.185Z,23.03
2023-01-23T11:36:37.965Z,25.10
2023-01-23T11:39:16.979Z,24.53
2023-01-23T11:41:44.057Z,23.20
2023-01-23T11:44:18.385Z,21.90
2023-01-23T11:46:54.454Z,23.27
2023-01-23T11:49:24.699Z,23.83
2023-01-23T11:51:55.851Z,24.87
2023-01-23T11:54:35.977Z,23.73
2023-01-23T11:57:03.427Z,23.43
2023-01-23T11:59:42.237Z,20.93
2023-01-23T12:02:27.073Z,21.47
2023-01-23T12:04:53.639Z,21.67
2023-01-23T12:07:25.974Z,22.00
2023-01-23T12:09:52.634Z,20.60
2023-01-23T12:12:19.150Z,22.17
2023-01-23T12:14:45.614Z,21.17
2023-01-23T12:17:38.596Z,18.87
2023-01-23T12:20:05.175Z,20.60
2023-01-23T12:22:35.363Z,20.00
2023-01-23T12:25:04.686Z,22.87
2023-01-23T12:27:50.737Z,25.43
2023-01-23T12:30:37.855Z,22.70
2023-01-23T12:33:06.562Z,22.20
2023-01-23T12:36:11.265Z,23.60
2023-01-23T12:38:35.838Z,23.33
2023-01-23T12:41:09.861Z,25.20
2023-01-23T12:43:36.374Z,26.27
2023-01-23T12:48:50.653Z,23.53
2023-01-23T12:51:19.677Z,22.40
2023-01-23T12:53:46.333Z,21.83
2023-01-23T12:56:17.978Z,21.93
2023-01-23T12:58:50.258Z,20.57
2023-01-23T13:01:16.816Z,18.73
2023-01-23T13:03:59.012Z,21.50
2023-01-23T13:07:03.785Z,21.33
2023-01-23T13:09:51.643Z,18.93
2023-01-23T13:12:22.579Z,19.47
2023-01-23T13:15:10.447Z,20.77
2023-01-23T13:17:59.762Z,19.30
2023-01-23T13:20:54.070Z,20.30
2023-01-23T13:23:23.678Z,20.27
2023-01-23T13:25:50.320Z,19.57
2023-01-23T13:28:29.750Z,17.17
2023-01-23T13:31:02.712Z,18.70
2023-01-23T13:33:29.202Z,18.53
2023-01-23T13:35:59.752Z,18.67
2023-01-23T13:38:29.604Z,19.70
2023-01-23T13:41:05.352Z,17.30
2023-01-23T13:43:50.229Z,18.07
2023-01-23T13:46:19.844Z,17.37
2023-01-23T14:21:48.322Z,19.13
2023-01-23T14:24:20.115Z,19.73
2023-01-23T14:26:50.375Z,19.70
2023-01-23T14:29:23.566Z,20.90
2023-01-23T14:31:51.363Z,22.80
2023-01-23T14:34:19.115Z,22.00
2023-01-23T14:36:46.147Z,22.70
2023-01-23T14:39:17.051Z,20.87
2023-01-23T14:41:44.899Z,18.87
2023-01-23T14:44:21.641Z,20.63
2023-01-23T14:46:50.436Z,19.20
2023-01-23T14:49:16.921Z,20.43
2023-01-23T14:51:53.993Z,19.43
2023-01-23T14:54:23.156Z,16.73
2023-01-23T14:56:49.954Z,18.90
2023-01-23T14:59:36.876Z,19.50
2023-01-23T15:02:13.227Z,18.77
2023-01-23T15:05:03.022Z,18.57
2023-01-23T15:07:29.545Z,19.67
2023-01-23T15:09:56.054Z,20.50
2023-01-23T15:12:22.547Z,20.40
2023-01-23T15:14:51.224Z,20.50
2023-01-23T15:17:18.625Z,20.43
2023-01-23T15:19:48.991Z,20.30
2023-01-23T15:22:15.614Z,19.93
2023-01-23T15:24:42.131Z,19.80
2023-01-23T15:27:27.453Z,20.17
2023-01-23T15:30:13.894Z,19.33
2023-01-23T15:32:40.337Z,19.77
2023-01-23T15:35:14.942Z,19.57
2023-01-23T15:37:46.340Z,19.47
2023-01-23T15:40:16.725Z,21.27
2023-01-23T15:45:53.692Z,21.93
2023-01-23T15:48:20.754Z,22.07
2023-01-23T15:50:47.289Z,22.97
2023-01-23T15:53:13.819Z,21.83
2023-01-23T15:55:40.536Z,21.30
2023-01-23T15:58:07.131Z,20.40
2023-01-23T16:00:33.675Z,22.03
2023-01-23T16:03:00.360Z,22.20
2023-01-23T16:05:34.038Z,23.07
2023-01-23T16:08:03.507Z,20.57
2023-01-23T16:10:31.127Z,22.73
2023-01-23T16:12:58.072Z,21.40
2023-01-23T16:15:25.538Z,21.50
2023-01-23T16:17:52.128Z,23.13
2023-01-23T16:20:26.861Z,23.80
2023-01-23T16:22:53.941Z,22.87
2023-01-23T16:25:44.555Z,23.83
2023-01-23T16:28:15.535Z,24.67
2023-01-23T16:30:42.178Z,26.13
2023-01-23T16:33:08.912Z,22.37
2023-01-23T16:35:35.423Z,23.27
2023-01-23T16:38:02.146Z,25.60
2023-01-23T16:40:32.176Z,26.90
2023-01-23T16:43:00.059Z,26.73
2023-01-23T16:45:27.459Z,26.03
2023-01-23T16:47:54.343Z,25.30
2023-01-23T16:50:34.407Z,25.73
2023-01-23T16:53:08.080Z,25.63
2023-01-23T16:55:35.368Z,26.97
2023-01-23T16:58:01.910Z,27.60
2023-01-23T17:00:34.769Z,26.17
2023-01-23T17:03:02.212Z,28.63
2023-01-23T17:05:28.721Z,27.93
2023-01-23T17:07:55.299Z,29.00
2023-01-23T17:10:22.296Z,26.70
2023-01-23T17:12:49.271Z,29.30
2023-01-23T17:15:33.937Z,28.73
2023-01-23T17:18:01.241Z,28.13
2023-01-23T17:20:28.758Z,25.70
2023-01-23T17:22:55.308Z,26.13
2023-01-23T17:25:22.682Z,26.23
2023-01-23T17:28:03.601Z,26.43
2023-01-23T17:30:36.055Z,25.47
2023-01-23T17:33:02.807Z,24.10
2023-01-23T17:35:31.660Z,25.73
2023-01-23T17:37:58.224Z,25.10
2023-01-23T17:40:24.896Z,27.40
2023-01-23T17:42:51.454Z,26.13
2023-01-23T17:45:19.561Z,25.53
2023-01-23T17:47:50.074Z,28.00
2023-01-23T17:50:16.619Z,24.60
2023-01-23T17:52:43.119Z,26.03
2023-01-23T17:55:13.491Z,28.23
2023-01-23T17:57:40.322Z,24.97
2023-01-23T18:00:07.270Z,27.20
2023-01-23T18:02:33.818Z,25.67
2023-01-23T18:05:00.662Z,26.43
2023-01-23T18:07:27.272Z,27.13
2023-01-23T18:09:55.908Z,25.10
2023-01-23T18:12:42.712Z,26.70
2023-01-23T18:15:11.362Z,24.87
2023-01-23T18:17:43.166Z,25.60
2023-01-23T18:20:16.894Z,28.40
2023-01-23T18:22:43.554Z,25.70
2023-01-23T18:25:16.859Z,25.53
2023-01-23T18:27:44.063Z,28.50
2023-01-23T18:30:21.791Z,28.07
2023-01-23T18:32:57.585Z,24.90
2023-01-23T18:35:27.469Z,25.73
2023-01-23T18:37:53.945Z,26.20
2023-01-23T18:40:21.927Z,24.53
2023-01-23T18:42:51.874Z,26.43
2023-01-23T18:45:27.065Z,23.47
2023-01-23T18:47:54.395Z,24.53
2023-01-23T18:50:25.383Z,23.17
2023-01-23T18:53:11.920Z,24.60
2023-01-23T18:55:39.743Z,23.63
2023-01-23T18:58:12.904Z,21.10
2023-01-23T19:00:55.053Z,22.33
2023-01-23T19:03:22.396Z,24.57
2023-01-23T19:05:49.053Z,23.03
2023-01-23T19:08:20.199Z,23.10
2023-01-23T19:10:48.876Z,22.63
2023-01-23T19:13:24.854Z,23.17
2023-01-23T19:15:57.906Z,23.70
2023-01-23T19:18:39.084Z,22.90
2023-01-23T19:21:12.286Z,21.63
2023-01-23T19:23:45.270Z,22.77
2023-01-23T19:26:14.800Z,22.80
2023-01-23T19:28:41.462Z,20.37
2023-01-23T19:31:09.888Z,21.20
2023-01-23T19:33:36.553Z,20.90
2023-01-23T19:36:04.138Z,22.30
2023-01-23T19:38:30.729Z,21.07
2023-01-23T19:40:57.498Z,20.93
2023-01-23T19:43:24.039Z,22.33
2023-01-23T19:45:50.538Z,23.03
2023-01-23T19:48:17.146Z,21.40
2023-01-23T19:50:44.219Z,21.40
2023-01-23T19:53:12.966Z,23.77
2023-01-23T19:55:39.558Z,24.37
2023-01-23T19:58:06.130Z,23.37
2023-01-23T20:00:33.145Z,24.93
2023-01-23T20:02:59.715Z,23.47
2023-01-23T20:05:26.348Z,24.83
2023-01-23T20:07:54.035Z,25.97
2023-01-23T20:10:20.619Z,26.00
2023-01-23T20:12:51.792Z,26.37
2023-01-23T20:15:19.500Z,24.30
2023-01-23T20:17:46.153Z,26.23
2023-01-23T20:20:12.823Z,27.13
2023-01-23T20:22:39.866Z,24.77
2023-01-23T20:25:10.595Z,24.40
2023-01-23T20:27:37.216Z,25.37
2023-01-23T20:30:07.695Z,26.63
2023-01-23T20:32:34.380Z,25.37
2023-01-23T20:35:01.138Z,25.60
2023-01-23T20:37:27.770Z,26.17
2023-01-23T20:39:54.427Z,23.30
2023-01-23T20:42:20.965Z,24.40
2023-01-23T20:44:47.510Z,23.87
2023-01-23T20:47:14.024Z,24.23
2023-01-23T20:49:40.567Z,24.53
2023-01-23T20:52:25.765Z,24.07
2023-01-23T20:54:52.367Z,26.63
2023-01-23T20:57:18.900Z,22.90
2023-01-23T20:59:46.015Z,24.53
2023-01-23T21:02:25.663Z,25.93
2023-01-23T21:04:53.292Z,25.83
2023-01-23T21:07:22.981Z,25.23
2023-01-23T21:09:49.767Z,24.77
2023-01-23T21:12:16.379Z,25.87
2023-01-23T21:14:42.922Z,26.90
2023-01-23T21:17:09.922Z,25.67
2023-01-23T21:19:37.083Z,26.77
2023-01-23T21:22:06.100Z,26.20
2023-01-23T21:24:34.587Z,26.97
2023-01-23T21:27:04.680Z,26.37
2023-01-23T21:29:31.306Z,28.50
2023-01-23T21:31:57.844Z,26.87
2023-01-23T21:34:24.539Z,27.17
2023-01-23T21:36:51.012Z,26.67
2023-01-23T21:39:17.573Z,27.40
2023-01-23T21:41:44.636Z,27.30
2023-01-23T21:44:11.344Z,28.30
2023-01-23T21:46:38.087Z,29.40
2023-01-23T21:49:04.927Z,28.87
2023-01-23T21:51:32.636Z,29.20
2023-01-23T21:53:59.225Z,28.17
2023-01-23T21:56:26.339Z,29.83
2023-01-23T21:58:52.902Z,28.27
2023-01-23T22:01:32.405Z,28.40
2023-01-23T22:04:03.088Z,28.67
2023-01-23T22:06:31.037Z,29.27
2023-01-23T22:08:57.701Z,28.33
2023-01-23T22:11:24.320Z,27.50
2023-01-23T22:13:50.813Z,27.63
2023-01-23T22:16:17.368Z,28.70
2023-01-23T22:18:44.041Z,28.70
2023-01-23T22:21:12.736Z,28.73
2023-01-23T22:23:39.255Z,28.90
2023-01-23T22:26:07.864Z,28.57
2023-01-23T22:28:35.219Z,29.97
2023-01-23T22:31:10.149Z,30.77
2023-01-23T22:33:40.765Z,30.60
2023-01-23T22:36:07.953Z,31.87
2023-01-23T22:38:34.616Z,31.23
2023-01-23T22:41:02.113Z,30.17
2023-01-23T22:43:28.741Z,31.23
2023-01-23T22:46:14.229Z,29.67
2023-01-23T22:48:40.864Z,30.77
2023-01-23T22:51:08.415Z,29.77
2023-01-23T22:53:34.976Z,29.77
2023-01-23T22:56:06.163Z,29.03
2023-01-23T22:58:33.555Z,29.27
2023-01-23T23:01:00.202Z,30.27
2023-01-23T23:03:27.704Z,29.87
2023-01-23T23:06:01.022Z,28.10
2023-01-23T23:08:27.589Z,29.80
2023-01-23T23:11:00.927Z,28.03
2023-01-23T23:13:27.762Z,27.33
2023-01-23T23:15:54.240Z,27.87
2023-01-23T23:18:20.754Z,27.77
2023-01-23T23:20:47.244Z,28.63
2023-01-23T23:23:14.704Z,27.67
2023-01-23T23:25:41.196Z,26.63
2023-01-23T23:28:07.755Z,26.57
2023-01-23T23:30:34.239Z,30.20
2023-01-23T23:33:00.821Z,27.67
2023-01-23T23:35:27.403Z,25.73
2023-01-23T23:37:53.894Z,27.57
2023-01-23T23:40:20.414Z,26.90
2023-01-23T23:42:46.917Z,25.83
2023-01-23T23:45:13.448Z,28.17
2023-01-23T23:47:39.884Z,26.57
2023-01-23T23:50:06.668Z,26.33
2023-01-23T23:52:35.950Z,24.47
2023-01-23T23:55:02.635Z,25.30
2023-01-23T23:57:29.178Z,26.67
2023-01-23T23:59:55.809Z,26.43
